sensor_id;sensor_type;location;lat;lon;timestamp;pressure;altitude;pressure_sealevel;temperature;humidity
19761;BME280;10039;42.632;23.408;2023-01-26T00:01:12;95451.50;;;1.44;72.08
19761;BME280;10039;42.632;23.408;2023-01-26T00:03:41;95509.50;;;1.66;72.07
19761;BME280;10039;42.632;23.408;2023-01-26T00:06:09;95470.59;;;1.41;72.50
19761;BME280;10039;42.632;23.408;2023-01-26T00:08:36;95466.16;;;1.45;72.70
19761;BME280;10039;42.632;23.408;2023-01-26T00:11:07;95458.44;;;1.52;72.18
19761;BME280;10039;42.632;23.408;2023-01-26T00:13:33;95487.53;;;1.59;71.52
19761;BME280;10039;42.632;23.408;2023-01-26T00:15:59;95488.63;;;1.73;71.77
19761;BME280;10039;42.632;23.408;2023-01-26T00:18:24;95474.81;;;1.61;72.55
19761;BME280;10039;42.632;23.408;2023-01-26T00:21:01;95452.63;;;1.58;71.72
19761;BME280;10039;42.632;23.408;2023-01-26T00:23:29;95457.19;;;1.46;71.41
19761;BME280;10039;42.632;23.408;2023-01-26T00:25:55;95480.50;;;1.63;71.14
19761;BME280;10039;42.632;23.408;2023-01-26T00:28:21;95482.47;;;1.50;71.63
19761;BME280;10039;42.632;23.408;2023-01-26T00:30:49;95494.50;;;1.67;71.45
19761;BME280;10039;42.632;23.408;2023-01-26T00:33:15;95475.47;;;1.73;71.83
19761;BME280;10039;42.632;23.408;2023-01-26T00:35:41;95453.94;;;1.68;71.36
19761;BME280;10039;42.632;23.408;2023-01-26T00:38:11;95450.53;;;1.67;70.70
19761;BME280;10039;42.632;23.408;2023-01-26T00:40:40;95446.91;;;1.72;70.90
19761;BME280;10039;42.632;23.408;2023-01-26T00:43:06;95439.19;;;1.48;70.89
19761;BME280;10039;42.632;23.408;2023-01-26T00:45:33;95427.53;;;1.30;71.21
19761;BME280;10039;42.632;23.408;2023-01-26T00:47:59;95443.22;;;1.42;71.82
19761;BME280;10039;42.632;23.408;2023-01-26T00:50:24;95435.66;;;1.40;71.21
19761;BME280;10039;42.632;23.408;2023-01-26T00:52:50;95440.47;;;1.54;71.69
19761;BME280;10039;42.632;23.408;2023-01-26T00:55:18;95431.31;;;1.48;71.08
19761;BME280;10039;42.632;23.408;2023-01-26T00:57:44;95430.06;;;1.42;70.91
19761;BME280;10039;42.632;23.408;2023-01-26T01:00:10;95440.16;;;1.55;71.59
19761;BME280;10039;42.632;23.408;2023-01-26T01:02:44;95445.31;;;1.52;70.89
19761;BME280;10039;42.632;23.408;2023-01-26T01:05:10;95443.03;;;1.85;71.46
19761;BME280;10039;42.632;23.408;2023-01-26T01:07:36;95438.78;;;1.96;70.04
19761;BME280;10039;42.632;23.408;2023-01-26T01:10:02;95415.72;;;1.55;69.96
19761;BME280;10039;42.632;23.408;2023-01-26T01:12:28;95408.34;;;1.79;70.87
19761;BME280;10039;42.632;23.408;2023-01-26T01:14:53;95432.59;;;1.88;70.41
19761;BME280;10039;42.632;23.408;2023-01-26T01:17:19;95429.81;;;1.81;69.88
19761;BME280;10039;42.632;23.408;2023-01-26T01:19:45;95406.16;;;1.81;69.09
19761;BME280;10039;42.632;23.408;2023-01-26T01:22:10;95425.47;;;2.08;70.00
19761;BME280;10039;42.632;23.408;2023-01-26T01:24:38;95417.00;;;1.80;68.67
19761;BME280;10039;42.632;23.408;2023-01-26T01:27:07;95409.84;;;1.61;69.53
19761;BME280;10039;42.632;23.408;2023-01-26T01:29:32;95397.00;;;1.75;70.02
19761;BME280;10039;42.632;23.408;2023-01-26T01:31:58;95402.97;;;1.91;69.33
19761;BME280;10039;42.632;23.408;2023-01-26T01:34:24;95396.41;;;1.66;68.00
19761;BME280;10039;42.632;23.408;2023-01-26T01:36:49;95423.88;;;1.84;68.69
19761;BME280;10039;42.632;23.408;2023-01-26T01:39:15;95405.69;;;1.95;68.93
19761;BME280;10039;42.632;23.408;2023-01-26T01:41:41;95430.25;;;1.83;68.37
19761;BME280;10039;42.632;23.408;2023-01-26T01:44:25;95399.63;;;1.75;69.38
19761;BME280;10039;42.632;23.408;2023-01-26T01:46:56;95402.31;;;1.44;68.24
19761;BME280;10039;42.632;23.408;2023-01-26T01:49:47;95404.53;;;1.42;69.00
19761;BME280;10039;42.632;23.408;2023-01-26T01:52:20;95412.31;;;1.54;69.46
19761;BME280;10039;42.632;23.408;2023-01-26T01:54:57;95398.34;;;1.50;69.95
19761;BME280;10039;42.632;23.408;2023-01-26T01:57:32;95385.91;;;1.16;68.93
19761;BME280;10039;42.632;23.408;2023-01-26T02:00:14;95400.59;;;1.52;70.16
19761;BME280;10039;42.632;23.408;2023-01-26T02:02:42;95422.97;;;1.61;69.21
19761;BME280;10039;42.632;23.408;2023-01-26T02:05:32;95394.19;;;1.49;70.14
19761;BME280;10039;42.632;23.408;2023-01-26T02:08:01;95398.59;;;1.80;69.42
19761;BME280;10039;42.632;23.408;2023-01-26T02:10:27;95364.03;;;1.62;69.15
19761;BME280;10039;42.632;23.408;2023-01-26T02:12:55;95372.28;;;1.61;69.15
19761;BME280;10039;42.632;23.408;2023-01-26T02:15:22;95391.34;;;1.58;68.87
19761;BME280;10039;42.632;23.408;2023-01-26T02:17:50;95406.53;;;1.64;69.43
19761;BME280;10039;42.632;23.408;2023-01-26T02:20:49;95354.31;;;1.47;69.39
19761;BME280;10039;42.632;23.408;2023-01-26T02:28:44;95412.25;;;1.85;69.36
19761;BME280;10039;42.632;23.408;2023-01-26T02:31:12;95349.97;;;1.20;69.75
19761;BME280;10039;42.632;23.408;2023-01-26T02:33:39;95351.56;;;1.25;70.70
19761;BME280;10039;42.632;23.408;2023-01-26T02:36:06;95353.72;;;1.19;70.10
19761;BME280;10039;42.632;23.408;2023-01-26T02:38:43;95363.88;;;1.21;70.46
19761;BME280;10039;42.632;23.408;2023-01-26T02:41:15;95346.16;;;1.18;70.91
19761;BME280;10039;42.632;23.408;2023-01-26T02:44:06;95331.34;;;1.25;70.72
19761;BME280;10039;42.632;23.408;2023-01-26T02:46:33;95343.75;;;1.28;70.27
19761;BME280;10039;42.632;23.408;2023-01-26T02:51:29;95358.03;;;1.62;69.37
19761;BME280;10039;42.632;23.408;2023-01-26T02:53:54;95319.19;;;1.55;70.19
19761;BME280;10039;42.632;23.408;2023-01-26T02:56:20;95316.41;;;1.48;69.26
19761;BME280;10039;42.632;23.408;2023-01-26T02:58:46;95301.88;;;1.35;69.01
19761;BME280;10039;42.632;23.408;2023-01-26T03:01:11;95314.59;;;1.33;69.52
19761;BME280;10039;42.632;23.408;2023-01-26T03:03:37;95318.41;;;1.36;69.56
19761;BME280;10039;42.632;23.408;2023-01-26T03:06:09;95300.47;;;1.22;69.16
19761;BME280;10039;42.632;23.408;2023-01-26T03:08:38;95302.38;;;1.41;69.65
19761;BME280;10039;42.632;23.408;2023-01-26T03:11:06;95300.09;;;1.58;69.58
19761;BME280;10039;42.632;23.408;2023-01-26T03:13:32;95307.53;;;1.72;68.99
19761;BME280;10039;42.632;23.408;2023-01-26T03:15:57;95329.03;;;1.96;68.63
19761;BME280;10039;42.632;23.408;2023-01-26T03:18:27;95315.81;;;1.93;68.41
19761;BME280;10039;42.632;23.408;2023-01-26T03:21:14;95335.03;;;2.16;67.96
19761;BME280;10039;42.632;23.408;2023-01-26T03:23:59;95280.22;;;1.80;66.99
19761;BME280;10039;42.632;23.408;2023-01-26T03:26:44;95317.34;;;1.94;67.79
19761;BME280;10039;42.632;23.408;2023-01-26T03:29:29;95286.25;;;1.61;67.46
19761;BME280;10039;42.632;23.408;2023-01-26T03:31:55;95294.63;;;1.86;69.04
19761;BME280;10039;42.632;23.408;2023-01-26T03:34:23;95258.06;;;1.81;68.48
19761;BME280;10039;42.632;23.408;2023-01-26T03:36:49;95270.91;;;1.82;67.45
19761;BME280;10039;42.632;23.408;2023-01-26T03:41:43;95272.47;;;1.87;67.85
19761;BME280;10039;42.632;23.408;2023-01-26T03:44:27;95261.81;;;1.80;67.47
19761;BME280;10039;42.632;23.408;2023-01-26T03:47:11;95263.06;;;1.86;67.52
19761;BME280;10039;42.632;23.408;2023-01-26T03:50:21;95310.44;;;2.27;67.51
19761;BME280;10039;42.632;23.408;2023-01-26T03:53:13;95254.22;;;1.75;67.38
19761;BME280;10039;42.632;23.408;2023-01-26T03:55:58;95256.22;;;1.62;67.94
19761;BME280;10039;42.632;23.408;2023-01-26T03:58:43;95259.34;;;1.68;68.97
19761;BME280;10039;42.632;23.408;2023-01-26T04:01:08;95239.00;;;1.65;69.08
19761;BME280;10039;42.632;23.408;2023-01-26T04:03:35;95247.44;;;1.74;68.71
19761;BME280;10039;42.632;23.408;2023-01-26T04:06:26;95262.91;;;1.79;68.33
19761;BME280;10039;42.632;23.408;2023-01-26T04:09:10;95274.97;;;1.99;68.54
19761;BME280;10039;42.632;23.408;2023-01-26T04:11:35;95288.06;;;1.76;67.42
19761;BME280;10039;42.632;23.408;2023-01-26T04:16:29;95258.34;;;1.95;68.17
19761;BME280;10039;42.632;23.408;2023-01-26T04:19:13;95234.56;;;1.69;67.60
19761;BME280;10039;42.632;23.408;2023-01-26T04:22:00;95242.44;;;1.88;68.53
19761;BME280;10039;42.632;23.408;2023-01-26T04:24:26;95238.94;;;2.03;68.53
19761;BME280;10039;42.632;23.408;2023-01-26T04:26:51;95242.88;;;2.12;68.43
19761;BME280;10039;42.632;23.408;2023-01-26T04:29:17;95211.81;;;1.99;67.77
19761;BME280;10039;42.632;23.408;2023-01-26T04:31:43;95240.94;;;2.09;67.48
19761;BME280;10039;42.632;23.408;2023-01-26T04:34:13;95217.00;;;1.73;68.70
19761;BME280;10039;42.632;23.408;2023-01-26T04:36:40;95248.53;;;1.92;68.12
19761;BME280;10039;42.632;23.408;2023-01-26T04:39:06;95210.72;;;1.58;68.05
19761;BME280;10039;42.632;23.408;2023-01-26T04:41:32;95213.13;;;1.48;68.56
19761;BME280;10039;42.632;23.408;2023-01-26T04:43:59;95211.66;;;1.69;69.31
19761;BME280;10039;42.632;23.408;2023-01-26T04:46:25;95237.81;;;1.81;68.92
19761;BME280;10039;42.632;23.408;2023-01-26T04:48:51;95211.38;;;1.74;69.15
19761;BME280;10039;42.632;23.408;2023-01-26T04:51:19;95228.16;;;1.89;69.15
19761;BME280;10039;42.632;23.408;2023-01-26T04:53:45;95206.25;;;1.62;68.07
19761;BME280;10039;42.632;23.408;2023-01-26T04:56:28;95201.72;;;1.59;67.88
19761;BME280;10039;42.632;23.408;2023-01-26T04:58:55;95226.66;;;1.88;68.81
19761;BME280;10039;42.632;23.408;2023-01-26T05:01:22;95239.88;;;2.14;68.55
19761;BME280;10039;42.632;23.408;2023-01-26T05:03:48;95233.75;;;2.06;67.58
19761;BME280;10039;42.632;23.408;2023-01-26T05:06:14;95258.59;;;2.09;67.58
19761;BME280;10039;42.632;23.408;2023-01-26T05:08:40;95223.88;;;2.00;68.12
19761;BME280;10039;42.632;23.408;2023-01-26T05:11:06;95208.22;;;1.88;67.54
19761;BME280;10039;42.632;23.408;2023-01-26T05:13:32;95229.31;;;2.10;67.44
19761;BME280;10039;42.632;23.408;2023-01-26T05:16:01;95249.13;;;2.04;67.45
19761;BME280;10039;42.632;23.408;2023-01-26T05:18:28;95205.03;;;1.56;67.38
19761;BME280;10039;42.632;23.408;2023-01-26T05:20:54;95197.63;;;1.62;67.66
19761;BME280;10039;42.632;23.408;2023-01-26T05:23:21;95219.53;;;1.88;67.92
19761;BME280;10039;42.632;23.408;2023-01-26T05:25:46;95199.00;;;1.75;67.47
19761;BME280;10039;42.632;23.408;2023-01-26T05:28:12;95205.19;;;1.86;67.73
19761;BME280;10039;42.632;23.408;2023-01-26T05:30:37;95192.41;;;1.84;67.60
19761;BME280;10039;42.632;23.408;2023-01-26T05:33:04;95179.16;;;1.81;67.04
19761;BME280;10039;42.632;23.408;2023-01-26T05:35:30;95210.53;;;2.12;67.51
19761;BME280;10039;42.632;23.408;2023-01-26T05:37:56;95176.91;;;2.02;67.17
19761;BME280;10039;42.632;23.408;2023-01-26T05:40:21;95186.22;;;1.96;66.70
19761;BME280;10039;42.632;23.408;2023-01-26T05:42:49;95206.66;;;2.28;67.38
19761;BME280;10039;42.632;23.408;2023-01-26T05:45:15;95190.38;;;2.19;66.70
19761;BME280;10039;42.632;23.408;2023-01-26T05:47:42;95205.63;;;2.32;66.59
19761;BME280;10039;42.632;23.408;2023-01-26T05:50:09;95244.06;;;2.63;66.67
19761;BME280;10039;42.632;23.408;2023-01-26T05:52:35;95203.41;;;2.34;65.83
19761;BME280;10039;42.632;23.408;2023-01-26T05:55:01;95195.72;;;2.26;65.63
19761;BME280;10039;42.632;23.408;2023-01-26T05:57:26;95191.97;;;2.27;66.13
19761;BME280;10039;42.632;23.408;2023-01-26T05:59:52;95217.16;;;2.50;66.73
19761;BME280;10039;42.632;23.408;2023-01-26T06:02:18;95207.97;;;2.37;66.06
19761;BME280;10039;42.632;23.408;2023-01-26T06:04:43;95175.25;;;2.38;66.45
19761;BME280;10039;42.632;23.408;2023-01-26T06:07:09;95199.16;;;2.52;65.63
19761;BME280;10039;42.632;23.408;2023-01-26T06:09:38;95201.19;;;2.62;66.10
19761;BME280;10039;42.632;23.408;2023-01-26T06:12:03;95181.50;;;2.30;65.43
19761;BME280;10039;42.632;23.408;2023-01-26T06:14:29;95185.78;;;2.38;65.92
19761;BME280;10039;42.632;23.408;2023-01-26T06:16:54;95171.94;;;2.19;64.81
19761;BME280;10039;42.632;23.408;2023-01-26T06:19:20;95178.34;;;2.21;65.54
19761;BME280;10039;42.632;23.408;2023-01-26T06:21:46;95196.19;;;2.54;66.41
19761;BME280;10039;42.632;23.408;2023-01-26T06:24:11;95220.38;;;2.63;66.24
19761;BME280;10039;42.632;23.408;2023-01-26T06:26:37;95229.38;;;2.62;65.87
19761;BME280;10039;42.632;23.408;2023-01-26T06:29:03;95173.88;;;2.22;65.42
19761;BME280;10039;42.632;23.408;2023-01-26T06:31:29;95183.03;;;2.31;66.37
19761;BME280;10039;42.632;23.408;2023-01-26T06:33:55;95187.38;;;2.20;65.63
19761;BME280;10039;42.632;23.408;2023-01-26T06:36:20;95179.97;;;2.04;65.88
19761;BME280;10039;42.632;23.408;2023-01-26T06:38:48;95167.63;;;1.85;66.77
19761;BME280;10039;42.632;23.408;2023-01-26T06:41:14;95162.81;;;1.91;66.53
19761;BME280;10039;42.632;23.408;2023-01-26T06:43:44;95166.81;;;2.04;66.91
19761;BME280;10039;42.632;23.408;2023-01-26T06:46:10;95169.31;;;1.97;66.14
19761;BME280;10039;42.632;23.408;2023-01-26T06:48:36;95218.16;;;2.42;66.96
19761;BME280;10039;42.632;23.408;2023-01-26T06:53:48;95211.28;;;2.34;65.98
19761;BME280;10039;42.632;23.408;2023-01-26T06:56:16;95155.56;;;2.07;66.64
19761;BME280;10039;42.632;23.408;2023-01-26T06:58:41;95147.16;;;1.98;66.69
19761;BME280;10039;42.632;23.408;2023-01-26T07:01:16;95178.88;;;2.30;67.02
19761;BME280;10039;42.632;23.408;2023-01-26T07:03:47;95219.22;;;2.60;66.36
19761;BME280;10039;42.632;23.408;2023-01-26T07:06:12;95166.31;;;2.20;66.21
19761;BME280;10039;42.632;23.408;2023-01-26T07:08:38;95183.84;;;2.35;66.24
19761;BME280;10039;42.632;23.408;2023-01-26T07:11:04;95172.00;;;2.48;66.72
19761;BME280;10039;42.632;23.408;2023-01-26T07:13:30;95147.78;;;2.39;66.54
19761;BME280;10039;42.632;23.408;2023-01-26T07:16:00;95148.66;;;2.47;66.73
19761;BME280;10039;42.632;23.408;2023-01-26T07:18:26;95170.63;;;2.84;66.12
19761;BME280;10039;42.632;23.408;2023-01-26T07:20:51;95139.84;;;2.62;66.03
19761;BME280;10039;42.632;23.408;2023-01-26T07:23:17;95167.72;;;2.92;65.53
19761;BME280;10039;42.632;23.408;2023-01-26T07:25:42;95152.84;;;2.77;65.46
19761;BME280;10039;42.632;23.408;2023-01-26T07:28:08;95178.97;;;2.89;65.50
19761;BME280;10039;42.632;23.408;2023-01-26T07:30:35;95140.19;;;2.86;66.00
19761;BME280;10039;42.632;23.408;2023-01-26T07:33:00;95150.31;;;2.84;65.70
19761;BME280;10039;42.632;23.408;2023-01-26T07:35:26;95161.09;;;3.05;65.62
19761;BME280;10039;42.632;23.408;2023-01-26T07:37:53;95159.69;;;3.11;65.01
19761;BME280;10039;42.632;23.408;2023-01-26T07:40:19;95173.66;;;3.15;65.24
19761;BME280;10039;42.632;23.408;2023-01-26T07:42:45;95149.44;;;3.06;65.42
19761;BME280;10039;42.632;23.408;2023-01-26T07:45:11;95136.69;;;3.08;64.73
19761;BME280;10039;42.632;23.408;2023-01-26T07:47:36;95119.47;;;2.85;64.95
19761;BME280;10039;42.632;23.408;2023-01-26T07:50:03;95183.50;;;3.18;65.25
19761;BME280;10039;42.632;23.408;2023-01-26T07:52:30;95144.13;;;2.99;65.14
19761;BME280;10039;42.632;23.408;2023-01-26T07:54:55;95121.09;;;2.67;65.73
19761;BME280;10039;42.632;23.408;2023-01-26T07:57:21;95130.31;;;2.80;65.98
19761;BME280;10039;42.632;23.408;2023-01-26T07:59:46;95171.81;;;3.16;65.59
19761;BME280;10039;42.632;23.408;2023-01-26T08:02:12;95136.13;;;2.92;66.16
19761;BME280;10039;42.632;23.408;2023-01-26T08:04:37;95140.00;;;3.02;65.27
19761;BME280;10039;42.632;23.408;2023-01-26T08:07:03;95125.88;;;2.87;65.47
19761;BME280;10039;42.632;23.408;2023-01-26T08:09:28;95147.88;;;2.98;65.56
19761;BME280;10039;42.632;23.408;2023-01-26T08:11:56;95133.78;;;2.87;65.24
19761;BME280;10039;42.632;23.408;2023-01-26T08:14:23;95116.09;;;2.58;64.55
19761;BME280;10039;42.632;23.408;2023-01-26T08:16:51;95115.09;;;2.66;65.09
19761;BME280;10039;42.632;23.408;2023-01-26T08:19:17;95092.38;;;2.55;65.44
19761;BME280;10039;42.632;23.408;2023-01-26T08:21:42;95115.44;;;2.94;65.67
19761;BME280;10039;42.632;23.408;2023-01-26T08:24:11;95086.72;;;2.56;64.41
19761;BME280;10039;42.632;23.408;2023-01-26T08:26:37;95152.22;;;2.87;64.98
19761;BME280;10039;42.632;23.408;2023-01-26T08:29:03;95105.56;;;2.58;64.60
19761;BME280;10039;42.632;23.408;2023-01-26T08:31:28;95105.53;;;2.84;65.36
19761;BME280;10039;42.632;23.408;2023-01-26T08:33:54;95100.00;;;2.63;64.28
19761;BME280;10039;42.632;23.408;2023-01-26T08:36:21;95085.94;;;2.82;65.62
19761;BME280;10039;42.632;23.408;2023-01-26T08:38:47;95112.56;;;3.06;65.15
19761;BME280;10039;42.632;23.408;2023-01-26T08:41:13;95140.63;;;3.25;64.09
19761;BME280;10039;42.632;23.408;2023-01-26T08:43:38;95121.00;;;3.19;63.85
19761;BME280;10039;42.632;23.408;2023-01-26T08:46:04;95135.53;;;3.38;64.16
19761;BME280;10039;42.632;23.408;2023-01-26T08:48:30;95122.63;;;3.30;64.36
19761;BME280;10039;42.632;23.408;2023-01-26T08:50:58;95092.94;;;3.36;64.37
19761;BME280;10039;42.632;23.408;2023-01-26T08:53:24;95138.06;;;3.68;64.36
19761;BME280;10039;42.632;23.408;2023-01-26T08:55:50;95134.69;;;3.67;63.74
19761;BME280;10039;42.632;23.408;2023-01-26T08:58:16;95110.81;;;3.53;63.29
19761;BME280;10039;42.632;23.408;2023-01-26T09:00:42;95106.09;;;3.33;62.70
19761;BME280;10039;42.632;23.408;2023-01-26T09:03:08;95097.50;;;3.07;62.87
19761;BME280;10039;42.632;23.408;2023-01-26T09:05:37;95136.16;;;3.28;62.95
19761;BME280;10039;42.632;23.408;2023-01-26T09:08:03;95090.34;;;3.07;63.62
19761;BME280;10039;42.632;23.408;2023-01-26T09:10:29;95125.00;;;3.42;64.24
19761;BME280;10039;42.632;23.408;2023-01-26T09:12:56;95082.72;;;3.31;63.22
19761;BME280;10039;42.632;23.408;2023-01-26T09:15:22;95082.03;;;3.38;63.47
19761;BME280;10039;42.632;23.408;2023-01-26T09:17:48;95093.50;;;3.56;63.59
19761;BME280;10039;42.632;23.408;2023-01-26T09:20:13;95119.63;;;3.68;62.62
19761;BME280;10039;42.632;23.408;2023-01-26T09:22:39;95106.06;;;3.66;63.04
19761;BME280;10039;42.632;23.408;2023-01-26T09:25:05;95074.91;;;3.42;63.38
19761;BME280;10039;42.632;23.408;2023-01-26T09:27:31;95079.19;;;3.57;63.32
19761;BME280;10039;42.632;23.408;2023-01-26T09:29:57;95068.66;;;3.57;63.39
19761;BME280;10039;42.632;23.408;2023-01-26T09:32:22;95081.84;;;3.57;62.48
19761;BME280;10039;42.632;23.408;2023-01-26T09:34:48;95090.75;;;3.85;63.13
19761;BME280;10039;42.632;23.408;2023-01-26T09:37:14;95035.56;;;3.27;62.08
19761;BME280;10039;42.632;23.408;2023-01-26T09:39:39;95088.72;;;3.65;63.73
19761;BME280;10039;42.632;23.408;2023-01-26T09:42:16;95096.00;;;3.82;63.33
19761;BME280;10039;42.632;23.408;2023-01-26T09:45:26;95076.28;;;3.69;63.24
19761;BME280;10039;42.632;23.408;2023-01-26T09:50:36;95045.22;;;3.48;62.67
19761;BME280;10039;42.632;23.408;2023-01-26T09:53:13;95059.63;;;3.58;63.30
19761;BME280;10039;42.632;23.408;2023-01-26T09:55:39;95043.50;;;3.70;63.15
19761;BME280;10039;42.632;23.408;2023-01-26T09:58:13;95061.69;;;3.78;62.48
19761;BME280;10039;42.632;23.408;2023-01-26T10:00:46;95041.59;;;3.67;62.12
19761;BME280;10039;42.632;23.408;2023-01-26T10:06:28;95052.91;;;3.64;62.53
19761;BME280;10039;42.632;23.408;2023-01-26T10:08:59;95059.69;;;3.65;63.35
19761;BME280;10039;42.632;23.408;2023-01-26T10:11:31;95078.06;;;3.98;63.03
19761;BME280;10039;42.632;23.408;2023-01-26T10:14:03;95057.16;;;3.79;63.15
19761;BME280;10039;42.632;23.408;2023-01-26T10:16:34;95065.28;;;4.07;63.03
19761;BME280;10039;42.632;23.408;2023-01-26T10:19:09;95064.59;;;4.17;63.13
19761;BME280;10039;42.632;23.408;2023-01-26T10:21:40;95040.34;;;4.01;62.03
19761;BME280;10039;42.632;23.408;2023-01-26T10:24:10;95022.34;;;4.17;63.05
19761;BME280;10039;42.632;23.408;2023-01-26T10:26:36;95030.66;;;4.19;61.90
19761;BME280;10039;42.632;23.408;2023-01-26T10:29:02;94990.50;;;3.89;61.91
19761;BME280;10039;42.632;23.408;2023-01-26T10:31:30;95005.69;;;4.06;62.10
19761;BME280;10039;42.632;23.408;2023-01-26T10:34:05;94994.78;;;4.11;62.28
19761;BME280;10039;42.632;23.408;2023-01-26T10:36:34;94976.22;;;3.97;61.60
19761;BME280;10039;42.632;23.408;2023-01-26T10:39:05;94982.34;;;4.11;62.16
19761;BME280;10039;42.632;23.408;2023-01-26T10:41:31;94967.22;;;4.05;61.71
19761;BME280;10039;42.632;23.408;2023-01-26T10:43:59;94982.06;;;4.27;62.30
19761;BME280;10039;42.632;23.408;2023-01-26T10:46:36;94937.09;;;4.13;61.86
19761;BME280;10039;42.632;23.408;2023-01-26T10:49:14;94945.84;;;4.31;61.52
19761;BME280;10039;42.632;23.408;2023-01-26T10:51:42;94965.94;;;4.52;61.82
19761;BME280;10039;42.632;23.408;2023-01-26T10:54:21;94968.22;;;4.61;61.65
19761;BME280;10039;42.632;23.408;2023-01-26T10:56:57;94956.88;;;4.57;61.26
19761;BME280;10039;42.632;23.408;2023-01-26T10:59:36;94944.06;;;4.55;61.16
19761;BME280;10039;42.632;23.408;2023-01-26T11:07:36;94887.91;;;3.84;61.58
19761;BME280;10039;42.632;23.408;2023-01-26T11:12:41;94928.13;;;4.28;62.52
19761;BME280;10039;42.632;23.408;2023-01-26T11:15:19;94902.41;;;4.18;62.51
19761;BME280;10039;42.632;23.408;2023-01-26T11:25:38;94894.75;;;3.92;62.45
19761;BME280;10039;42.632;23.408;2023-01-26T11:28:34;94863.09;;;3.99;62.80
19761;BME280;10039;42.632;23.408;2023-01-26T11:31:18;94890.34;;;4.20;62.70
19761;BME280;10039;42.632;23.408;2023-01-26T11:33:58;94847.28;;;4.06;62.30
19761;BME280;10039;42.632;23.408;2023-01-26T11:41:58;94861.66;;;4.15;63.21
19761;BME280;10039;42.632;23.408;2023-01-26T11:50:27;94839.84;;;4.29;63.36
19761;BME280;10039;42.632;23.408;2023-01-26T11:58:50;94811.91;;;4.28;62.77
19761;BME280;10039;42.632;23.408;2023-01-26T12:01:22;94864.00;;;4.44;61.91
19761;BME280;10039;42.632;23.408;2023-01-26T12:03:54;94845.53;;;4.41;62.69
19761;BME280;10039;42.632;23.408;2023-01-26T12:06:41;94850.81;;;4.55;62.53
19761;BME280;10039;42.632;23.408;2023-01-26T12:12:08;94849.34;;;4.75;62.57
19761;BME280;10039;42.632;23.408;2023-01-26T12:14:45;94827.81;;;4.66;62.63
19761;BME280;10039;42.632;23.408;2023-01-26T12:17:41;94841.78;;;4.66;61.52
19761;BME280;10039;42.632;23.408;2023-01-26T12:20:22;94835.00;;;4.69;62.63
19761;BME280;10039;42.632;23.408;2023-01-26T12:22:57;94821.41;;;4.70;62.84
19761;BME280;10039;42.632;23.408;2023-01-26T12:25:32;94818.75;;;4.70;62.76
19761;BME280;10039;42.632;23.408;2023-01-26T12:28:19;94807.41;;;4.56;62.17
19761;BME280;10039;42.632;23.408;2023-01-26T12:33:37;94792.25;;;4.11;63.31
19761;BME280;10039;42.632;23.408;2023-01-26T12:36:26;94799.09;;;4.33;63.71
19761;BME280;10039;42.632;23.408;2023-01-26T12:39:07;94774.19;;;4.24;63.44
19761;BME280;10039;42.632;23.408;2023-01-26T12:50:15;94789.28;;;4.51;63.75
19761;BME280;10039;42.632;23.408;2023-01-26T12:55:43;94740.59;;;4.24;63.89
19761;BME280;10039;42.632;23.408;2023-01-26T12:58:22;94748.50;;;4.14;63.82
19761;BME280;10039;42.632;23.408;2023-01-26T13:00:54;94748.88;;;4.16;64.36
19761;BME280;10039;42.632;23.408;2023-01-26T13:03:30;94779.44;;;4.17;64.63
19761;BME280;10039;42.632;23.408;2023-01-26T13:06:16;94756.78;;;3.95;64.59
19761;BME280;10039;42.632;23.408;2023-01-26T13:08:49;94757.84;;;3.80;65.97
19761;BME280;10039;42.632;23.408;2023-01-26T13:14:31;94784.28;;;4.01;66.58
19761;BME280;10039;42.632;23.408;2023-01-26T13:17:39;94748.81;;;3.84;65.85
19761;BME280;10039;42.632;23.408;2023-01-26T13:20:21;94738.66;;;3.90;65.61
19761;BME280;10039;42.632;23.408;2023-01-26T13:22:47;94781.72;;;4.22;65.10
19761;BME280;10039;42.632;23.408;2023-01-26T13:28:02;94760.63;;;4.46;65.24
19761;BME280;10039;42.632;23.408;2023-01-26T13:30:45;94761.00;;;4.44;64.78
19761;BME280;10039;42.632;23.408;2023-01-26T13:33:14;94759.50;;;4.57;64.68
19761;BME280;10039;42.632;23.408;2023-01-26T13:35:41;94725.16;;;4.50;64.76
19761;BME280;10039;42.632;23.408;2023-01-26T13:38:13;94757.59;;;4.75;64.15
19761;BME280;10039;42.632;23.408;2023-01-26T13:40:43;94724.78;;;4.55;64.11
19761;BME280;10039;42.632;23.408;2023-01-26T13:44:03;94742.50;;;4.83;64.04
19761;BME280;10039;42.632;23.408;2023-01-26T13:46:28;94748.53;;;4.83;63.65
19761;BME280;10039;42.632;23.408;2023-01-26T13:48:56;94735.34;;;4.73;63.81
19761;BME280;10039;42.632;23.408;2023-01-26T13:56:26;94703.25;;;4.39;64.25
19761;BME280;10039;42.632;23.408;2023-01-26T13:58:52;94720.63;;;4.58;64.14
19761;BME280;10039;42.632;23.408;2023-01-26T14:01:19;94695.31;;;4.50;64.21
19761;BME280;10039;42.632;23.408;2023-01-26T14:03:45;94694.22;;;4.47;63.82
19761;BME280;10039;42.632;23.408;2023-01-26T14:06:17;94708.53;;;4.67;63.89
19761;BME280;10039;42.632;23.408;2023-01-26T14:08:50;94712.69;;;4.75;63.96
19761;BME280;10039;42.632;23.408;2023-01-26T14:11:20;94684.00;;;4.63;63.51
19761;BME280;10039;42.632;23.408;2023-01-26T14:13:50;94676.06;;;4.63;63.28
19761;BME280;10039;42.632;23.408;2023-01-26T14:16:27;94709.28;;;4.71;63.31
19761;BME280;10039;42.632;23.408;2023-01-26T14:19:03;94691.94;;;4.53;63.75
19761;BME280;10039;42.632;23.408;2023-01-26T14:21:30;94702.50;;;4.67;63.84
19761;BME280;10039;42.632;23.408;2023-01-26T14:23:57;94676.47;;;4.58;63.77
19761;BME280;10039;42.632;23.408;2023-01-26T14:26:29;94678.34;;;4.61;63.45
19761;BME280;10039;42.632;23.408;2023-01-26T14:28:56;94688.50;;;4.73;63.43
19761;BME280;10039;42.632;23.408;2023-01-26T14:31:24;94697.56;;;4.79;63.65
19761;BME280;10039;42.632;23.408;2023-01-26T14:33:52;94666.28;;;4.60;63.40
19761;BME280;10039;42.632;23.408;2023-01-26T14:36:24;94654.19;;;4.59;62.85
19761;BME280;10039;42.632;23.408;2023-01-26T14:38:52;94661.72;;;4.68;63.41